MHLC

Goloson International Airport

La Ceiba, Honduras
TAF MHLC 161600Z 1618/1718 03012KT 9999 SCT026TCU SCT080 TX31/1619Z TN22/1712Z TEMPO 1621/1701 6000 -RA SCT024CB SCT080 BECMG 1703/1705 00000KT 9999 FEW022 SCT080
Issued Valid From Valid To
Jul-16 @ 16:00 UTC
(4 hours ago)
Jul-16 @ 18:00 UTC
(2 hours ago)
Jul-17 @ 18:00 UTC
(in 22 hours)
Jul-16 @ 18:00 to Jul-17 @ 03:00
TAF MHLC 161600Z 1618/1718 03012KT 9999 SCT026TCU SCT080 TX31/1619Z TN22/1712Z
Wind Visibility Clouds
30° at 12 knots 10,000+ meters
  • Scattered at 2,600' AGL
  • Scattered at 8,000' AGL
Temporary Jul-16 @ 21:00 to Jul-17 @ 01:00
TEMPO 1621/1701 6000 -RA SCT024CB SCT080
Visibility Clouds Conditions
6,003 meters
  • Scattered at 2,400' AGL
  • Scattered at 8,000' AGL
  • Light Rain
Becoming Jul-17 @ 03:00 to Jul-17 @ 18:00
BECMG 1703/1705 00000KT 9999 FEW022 SCT080
Visibility Clouds
10,000+ meters
  • Few at 2,200' AGL
  • Scattered at 8,000' AGL
TAF MHLC 161600Z 1618/1718 03012KT 9999 SCT026TCU SCT080 TX31/1619Z TN22/1712Z TEMPO 1621/1701 6000 -RA SCT024CB SCT080 BECMG 1703/1705 00000KT 9999 FEW022 SCT080
Issued Jul-16 @ 16:00 UTC
(4 hours ago)
Valid From Jul-16 @ 18:00 UTC
(2 hours ago)
Valid To Jul-17 @ 18:00 UTC
(in 22 hours)
Jul-16 @ 18:00 - Jul-17 @ 03:00
Wind Visibility
30° at 12 knots 10,000+ meters
Clouds
  • Scattered at 2,600' AGL
  • Scattered at 8,000' AGL
Temporary Jul-16 @ 21:00 - Jul-17 @ 01:00
Clouds
  • Scattered at 2,400' AGL
  • Scattered at 8,000' AGL
Conditions
  • Light Rain
Becoming Jul-17 @ 03:00 - Jul-17 @ 18:00
Clouds
  • Few at 2,200' AGL
  • Scattered at 8,000' AGL